sensor_id;sensor_type;location;lat;lon;timestamp;P1;durP1;ratioP1;P2;durP2;ratioP2
59970;SDS011;45825;45.434;9.116;2023-03-23T00:00:31;12.15;;;5.10;;
59970;SDS011;45825;45.434;9.116;2023-03-23T00:02:57;8.85;;;5.45;;
59970;SDS011;45825;45.434;9.116;2023-03-23T00:05:22;7.93;;;5.32;;
59970;SDS011;45825;45.434;9.116;2023-03-23T00:07:47;8.77;;;5.72;;
59970;SDS011;45825;45.434;9.116;2023-03-23T00:10:16;7.97;;;5.18;;
59970;SDS011;45825;45.434;9.116;2023-03-23T00:12:42;9.65;;;5.30;;
59970;SDS011;45825;45.434;9.116;2023-03-23T00:15:10;9.45;;;5.40;;
59970;SDS011;45825;45.434;9.116;2023-03-23T00:17:37;8.48;;;4.95;;
59970;SDS011;45825;45.434;9.116;2023-03-23T00:20:04;9.18;;;5.38;;
59970;SDS011;45825;45.434;9.116;2023-03-23T00:22:30;9.82;;;5.38;;
59970;SDS011;45825;45.434;9.116;2023-03-23T00:24:56;8.68;;;4.55;;
59970;SDS011;45825;45.434;9.116;2023-03-23T00:27:21;8.95;;;4.78;;
59970;SDS011;45825;45.434;9.116;2023-03-23T00:29:48;8.45;;;5.07;;
59970;SDS011;45825;45.434;9.116;2023-03-23T00:32:17;8.23;;;5.07;;
59970;SDS011;45825;45.434;9.116;2023-03-23T00:34:45;7.93;;;5.38;;
59970;SDS011;45825;45.434;9.116;2023-03-23T00:37:13;9.00;;;5.10;;
59970;SDS011;45825;45.434;9.116;2023-03-23T00:39:41;8.23;;;5.50;;
59970;SDS011;45825;45.434;9.116;2023-03-23T00:42:10;7.82;;;5.20;;
59970;SDS011;45825;45.434;9.116;2023-03-23T00:44:35;8.27;;;5.25;;
59970;SDS011;45825;45.434;9.116;2023-03-23T00:47:01;9.35;;;5.20;;
59970;SDS011;45825;45.434;9.116;2023-03-23T00:49:27;9.55;;;5.22;;
59970;SDS011;45825;45.434;9.116;2023-03-23T00:51:54;8.85;;;4.70;;
59970;SDS011;45825;45.434;9.116;2023-03-23T00:54:20;10.10;;;4.85;;
59970;SDS011;45825;45.434;9.116;2023-03-23T00:56:46;8.73;;;5.00;;
59970;SDS011;45825;45.434;9.116;2023-03-23T00:59:11;10.80;;;5.03;;
59970;SDS011;45825;45.434;9.116;2023-03-23T01:01:37;8.00;;;5.30;;
59970;SDS011;45825;45.434;9.116;2023-03-23T01:04:02;9.85;;;5.15;;
59970;SDS011;45825;45.434;9.116;2023-03-23T01:06:32;9.27;;;5.88;;
59970;SDS011;45825;45.434;9.116;2023-03-23T01:09:14;8.10;;;5.40;;
59970;SDS011;45825;45.434;9.116;2023-03-23T01:11:41;8.25;;;5.00;;
59970;SDS011;45825;45.434;9.116;2023-03-23T01:14:08;7.88;;;5.10;;
59970;SDS011;45825;45.434;9.116;2023-03-23T01:16:34;9.35;;;5.40;;
59970;SDS011;45825;45.434;9.116;2023-03-23T01:18:59;8.85;;;5.25;;
59970;SDS011;45825;45.434;9.116;2023-03-23T01:21:26;8.82;;;4.75;;
59970;SDS011;45825;45.434;9.116;2023-03-23T01:23:51;9.70;;;5.38;;
59970;SDS011;45825;45.434;9.116;2023-03-23T01:26:21;6.97;;;4.72;;
59970;SDS011;45825;45.434;9.116;2023-03-23T01:28:48;11.05;;;5.45;;
59970;SDS011;45825;45.434;9.116;2023-03-23T01:31:18;7.95;;;4.88;;
59970;SDS011;45825;45.434;9.116;2023-03-23T01:33:46;8.38;;;4.60;;
59970;SDS011;45825;45.434;9.116;2023-03-23T01:36:14;7.05;;;4.90;;
59970;SDS011;45825;45.434;9.116;2023-03-23T01:38:42;10.43;;;5.18;;
59970;SDS011;45825;45.434;9.116;2023-03-23T01:41:10;8.65;;;5.00;;
59970;SDS011;45825;45.434;9.116;2023-03-23T01:43:36;10.32;;;5.57;;
59970;SDS011;45825;45.434;9.116;2023-03-23T01:46:18;7.63;;;4.85;;
59970;SDS011;45825;45.434;9.116;2023-03-23T01:48:43;7.05;;;5.20;;
59970;SDS011;45825;45.434;9.116;2023-03-23T01:51:10;8.70;;;5.03;;
59970;SDS011;45825;45.434;9.116;2023-03-23T01:53:43;8.52;;;5.20;;
59970;SDS011;45825;45.434;9.116;2023-03-23T01:56:11;9.57;;;5.47;;
59970;SDS011;45825;45.434;9.116;2023-03-23T01:58:39;10.10;;;4.93;;
59970;SDS011;45825;45.434;9.116;2023-03-23T02:01:08;8.25;;;4.75;;
59970;SDS011;45825;45.434;9.116;2023-03-23T02:03:36;6.82;;;4.85;;
59970;SDS011;45825;45.434;9.116;2023-03-23T02:06:04;7.53;;;4.97;;
59970;SDS011;45825;45.434;9.116;2023-03-23T02:08:30;8.45;;;4.95;;
59970;SDS011;45825;45.434;9.116;2023-03-23T02:10:57;9.10;;;4.93;;
59970;SDS011;45825;45.434;9.116;2023-03-23T02:13:23;8.68;;;5.00;;
59970;SDS011;45825;45.434;9.116;2023-03-23T02:21:17;8.18;;;4.95;;
59970;SDS011;45825;45.434;9.116;2023-03-23T02:29:44;8.20;;;5.10;;
59970;SDS011;45825;45.434;9.116;2023-03-23T02:35:02;7.63;;;4.87;;
59970;SDS011;45825;45.434;9.116;2023-03-23T02:40:24;9.23;;;5.70;;
59970;SDS011;45825;45.434;9.116;2023-03-23T02:42:55;7.97;;;5.07;;
59970;SDS011;45825;45.434;9.116;2023-03-23T02:45:23;7.95;;;5.85;;
59970;SDS011;45825;45.434;9.116;2023-03-23T02:47:52;8.80;;;5.45;;
59970;SDS011;45825;45.434;9.116;2023-03-23T02:50:20;7.75;;;5.80;;
59970;SDS011;45825;45.434;9.116;2023-03-23T02:52:49;8.52;;;5.63;;
59970;SDS011;45825;45.434;9.116;2023-03-23T02:55:17;8.57;;;5.63;;
59970;SDS011;45825;45.434;9.116;2023-03-23T02:57:44;9.90;;;6.03;;
59970;SDS011;45825;45.434;9.116;2023-03-23T03:00:12;8.98;;;6.03;;
59970;SDS011;45825;45.434;9.116;2023-03-23T03:02:42;7.88;;;5.32;;
59970;SDS011;45825;45.434;9.116;2023-03-23T03:05:33;10.52;;;5.50;;
59970;SDS011;45825;45.434;9.116;2023-03-23T03:15:58;8.63;;;5.40;;
59970;SDS011;45825;45.434;9.116;2023-03-23T03:18:56;10.07;;;5.97;;
59970;SDS011;45825;45.434;9.116;2023-03-23T03:21:27;8.83;;;5.47;;
59970;SDS011;45825;45.434;9.116;2023-03-23T03:23:58;8.75;;;5.47;;
59970;SDS011;45825;45.434;9.116;2023-03-23T03:28:52;7.57;;;5.40;;
59970;SDS011;45825;45.434;9.116;2023-03-23T03:31:20;9.63;;;5.95;;
59970;SDS011;45825;45.434;9.116;2023-03-23T03:33:51;8.10;;;5.25;;
59970;SDS011;45825;45.434;9.116;2023-03-23T03:36:18;9.60;;;5.40;;
59970;SDS011;45825;45.434;9.116;2023-03-23T03:38:47;9.90;;;5.80;;
59970;SDS011;45825;45.434;9.116;2023-03-23T03:41:15;9.45;;;5.70;;
59970;SDS011;45825;45.434;9.116;2023-03-23T03:43:42;9.63;;;6.05;;
59970;SDS011;45825;45.434;9.116;2023-03-23T03:46:07;11.85;;;6.35;;
59970;SDS011;45825;45.434;9.116;2023-03-23T03:48:32;10.45;;;5.30;;
59970;SDS011;45825;45.434;9.116;2023-03-23T03:50:58;8.68;;;5.70;;
59970;SDS011;45825;45.434;9.116;2023-03-23T03:53:25;8.80;;;5.90;;
59970;SDS011;45825;45.434;9.116;2023-03-23T03:55:51;6.80;;;5.13;;
59970;SDS011;45825;45.434;9.116;2023-03-23T03:58:20;10.90;;;5.93;;
59970;SDS011;45825;45.434;9.116;2023-03-23T04:00:47;9.60;;;5.38;;
59970;SDS011;45825;45.434;9.116;2023-03-23T04:03:15;10.40;;;5.40;;
59970;SDS011;45825;45.434;9.116;2023-03-23T04:05:41;8.23;;;5.32;;
59970;SDS011;45825;45.434;9.116;2023-03-23T04:08:09;8.85;;;5.40;;
59970;SDS011;45825;45.434;9.116;2023-03-23T04:10:36;7.68;;;5.30;;
59970;SDS011;45825;45.434;9.116;2023-03-23T04:13:01;9.35;;;5.30;;
59970;SDS011;45825;45.434;9.116;2023-03-23T04:15:29;7.70;;;5.50;;
59970;SDS011;45825;45.434;9.116;2023-03-23T04:17:55;8.23;;;5.05;;
59970;SDS011;45825;45.434;9.116;2023-03-23T04:20:21;9.93;;;5.38;;
59970;SDS011;45825;45.434;9.116;2023-03-23T04:22:47;9.32;;;5.60;;
59970;SDS011;45825;45.434;9.116;2023-03-23T04:25:18;8.20;;;5.35;;
59970;SDS011;45825;45.434;9.116;2023-03-23T04:27:50;9.15;;;5.03;;
59970;SDS011;45825;45.434;9.116;2023-03-23T04:30:20;9.52;;;5.45;;
59970;SDS011;45825;45.434;9.116;2023-03-23T04:32:48;8.73;;;5.40;;
59970;SDS011;45825;45.434;9.116;2023-03-23T04:35:20;8.57;;;5.20;;
59970;SDS011;45825;45.434;9.116;2023-03-23T04:37:47;8.18;;;5.50;;
59970;SDS011;45825;45.434;9.116;2023-03-23T04:40:14;7.60;;;5.78;;
59970;SDS011;45825;45.434;9.116;2023-03-23T04:42:40;10.20;;;5.88;;
59970;SDS011;45825;45.434;9.116;2023-03-23T04:45:10;8.90;;;5.37;;
59970;SDS011;45825;45.434;9.116;2023-03-23T04:47:39;8.00;;;5.72;;
59970;SDS011;45825;45.434;9.116;2023-03-23T04:50:09;9.77;;;6.38;;
59970;SDS011;45825;45.434;9.116;2023-03-23T04:52:37;9.85;;;5.88;;
59970;SDS011;45825;45.434;9.116;2023-03-23T04:55:06;9.00;;;6.38;;
59970;SDS011;45825;45.434;9.116;2023-03-23T04:57:33;8.85;;;6.43;;
59970;SDS011;45825;45.434;9.116;2023-03-23T05:00:00;9.70;;;6.30;;
59970;SDS011;45825;45.434;9.116;2023-03-23T05:02:26;9.60;;;6.30;;
59970;SDS011;45825;45.434;9.116;2023-03-23T05:04:55;10.48;;;6.40;;
59970;SDS011;45825;45.434;9.116;2023-03-23T05:07:21;9.65;;;6.40;;
59970;SDS011;45825;45.434;9.116;2023-03-23T05:09:46;10.70;;;6.65;;
59970;SDS011;45825;45.434;9.116;2023-03-23T05:12:13;10.27;;;6.45;;
59970;SDS011;45825;45.434;9.116;2023-03-23T05:14:41;10.05;;;6.78;;
59970;SDS011;45825;45.434;9.116;2023-03-23T05:17:07;10.13;;;6.20;;
59970;SDS011;45825;45.434;9.116;2023-03-23T05:19:34;10.75;;;7.25;;
59970;SDS011;45825;45.434;9.116;2023-03-23T05:22:01;11.77;;;7.15;;
59970;SDS011;45825;45.434;9.116;2023-03-23T05:24:30;10.38;;;6.28;;
59970;SDS011;45825;45.434;9.116;2023-03-23T05:26:59;10.18;;;7.28;;
59970;SDS011;45825;45.434;9.116;2023-03-23T05:29:24;11.48;;;7.25;;
59970;SDS011;45825;45.434;9.116;2023-03-23T05:31:50;11.63;;;6.97;;
59970;SDS011;45825;45.434;9.116;2023-03-23T05:34:17;13.43;;;7.40;;
59970;SDS011;45825;45.434;9.116;2023-03-23T05:36:44;15.75;;;7.38;;
59970;SDS011;45825;45.434;9.116;2023-03-23T05:39:11;12.63;;;7.07;;
59970;SDS011;45825;45.434;9.116;2023-03-23T05:41:36;10.13;;;7.47;;
59970;SDS011;45825;45.434;9.116;2023-03-23T05:44:02;9.70;;;7.00;;
59970;SDS011;45825;45.434;9.116;2023-03-23T05:46:28;10.20;;;7.18;;
59970;SDS011;45825;45.434;9.116;2023-03-23T05:48:53;11.88;;;7.30;;
59970;SDS011;45825;45.434;9.116;2023-03-23T05:51:19;10.82;;;6.85;;
59970;SDS011;45825;45.434;9.116;2023-03-23T05:53:44;9.95;;;6.72;;
59970;SDS011;45825;45.434;9.116;2023-03-23T05:56:10;10.48;;;6.90;;
59970;SDS011;45825;45.434;9.116;2023-03-23T05:58:36;8.32;;;6.78;;
59970;SDS011;45825;45.434;9.116;2023-03-23T06:01:01;8.25;;;6.00;;
59970;SDS011;45825;45.434;9.116;2023-03-23T06:03:31;9.32;;;6.63;;
59970;SDS011;45825;45.434;9.116;2023-03-23T06:05:57;10.32;;;6.90;;
59970;SDS011;45825;45.434;9.116;2023-03-23T06:08:23;8.90;;;5.28;;
59970;SDS011;45825;45.434;9.116;2023-03-23T06:10:49;9.30;;;6.28;;
59970;SDS011;45825;45.434;9.116;2023-03-23T06:13:14;10.20;;;6.25;;
59970;SDS011;45825;45.434;9.116;2023-03-23T06:15:39;10.30;;;6.57;;
59970;SDS011;45825;45.434;9.116;2023-03-23T06:18:05;11.70;;;6.55;;
59970;SDS011;45825;45.434;9.116;2023-03-23T06:20:31;11.85;;;6.40;;
59970;SDS011;45825;45.434;9.116;2023-03-23T06:22:57;9.88;;;6.68;;
59970;SDS011;45825;45.434;9.116;2023-03-23T06:25:23;10.85;;;6.40;;
59970;SDS011;45825;45.434;9.116;2023-03-23T06:27:48;8.77;;;6.20;;
59970;SDS011;45825;45.434;9.116;2023-03-23T06:30:14;9.15;;;6.30;;
59970;SDS011;45825;45.434;9.116;2023-03-23T06:32:40;11.98;;;6.63;;
59970;SDS011;45825;45.434;9.116;2023-03-23T06:35:06;8.02;;;6.07;;
59970;SDS011;45825;45.434;9.116;2023-03-23T06:37:34;9.77;;;6.28;;
59970;SDS011;45825;45.434;9.116;2023-03-23T06:40:01;9.35;;;6.40;;
59970;SDS011;45825;45.434;9.116;2023-03-23T06:42:29;11.45;;;6.63;;
59970;SDS011;45825;45.434;9.116;2023-03-23T06:44:55;9.27;;;6.22;;
59970;SDS011;45825;45.434;9.116;2023-03-23T06:47:22;9.98;;;6.25;;
59970;SDS011;45825;45.434;9.116;2023-03-23T06:49:48;11.32;;;6.25;;
59970;SDS011;45825;45.434;9.116;2023-03-23T06:52:13;12.30;;;6.13;;
59970;SDS011;45825;45.434;9.116;2023-03-23T06:54:39;10.40;;;6.25;;
59970;SDS011;45825;45.434;9.116;2023-03-23T06:57:05;8.15;;;6.03;;
59970;SDS011;45825;45.434;9.116;2023-03-23T06:59:30;13.60;;;6.53;;
59970;SDS011;45825;45.434;9.116;2023-03-23T07:01:56;11.43;;;6.35;;
59970;SDS011;45825;45.434;9.116;2023-03-23T07:04:22;12.02;;;6.00;;
59970;SDS011;45825;45.434;9.116;2023-03-23T07:06:48;9.32;;;5.97;;
59970;SDS011;45825;45.434;9.116;2023-03-23T07:09:14;9.73;;;5.68;;
59970;SDS011;45825;45.434;9.116;2023-03-23T07:11:40;9.38;;;5.50;;
59970;SDS011;45825;45.434;9.116;2023-03-23T07:14:06;9.60;;;5.25;;
59970;SDS011;45825;45.434;9.116;2023-03-23T07:16:31;9.32;;;5.15;;
59970;SDS011;45825;45.434;9.116;2023-03-23T07:18:57;10.60;;;5.85;;
59970;SDS011;45825;45.434;9.116;2023-03-23T07:21:22;13.98;;;6.05;;
59970;SDS011;45825;45.434;9.116;2023-03-23T07:23:47;9.15;;;5.75;;
59970;SDS011;45825;45.434;9.116;2023-03-23T07:26:13;9.70;;;5.65;;
59970;SDS011;45825;45.434;9.116;2023-03-23T07:28:38;9.05;;;5.32;;
59970;SDS011;45825;45.434;9.116;2023-03-23T07:31:05;8.45;;;5.10;;
59970;SDS011;45825;45.434;9.116;2023-03-23T07:33:30;10.45;;;5.82;;
59970;SDS011;45825;45.434;9.116;2023-03-23T07:35:58;11.05;;;5.70;;
59970;SDS011;45825;45.434;9.116;2023-03-23T07:38:25;11.35;;;5.60;;
59970;SDS011;45825;45.434;9.116;2023-03-23T07:40:52;10.40;;;5.55;;
59970;SDS011;45825;45.434;9.116;2023-03-23T07:43:18;9.70;;;5.68;;
59970;SDS011;45825;45.434;9.116;2023-03-23T07:45:44;8.57;;;5.57;;
59970;SDS011;45825;45.434;9.116;2023-03-23T07:48:10;9.15;;;6.15;;
59970;SDS011;45825;45.434;9.116;2023-03-23T07:50:35;10.43;;;6.60;;
59970;SDS011;45825;45.434;9.116;2023-03-23T07:53:02;11.60;;;6.22;;
59970;SDS011;45825;45.434;9.116;2023-03-23T07:55:28;10.02;;;5.97;;
59970;SDS011;45825;45.434;9.116;2023-03-23T07:57:53;11.65;;;6.47;;
59970;SDS011;45825;45.434;9.116;2023-03-23T08:00:20;9.32;;;5.78;;
59970;SDS011;45825;45.434;9.116;2023-03-23T08:02:49;10.65;;;5.57;;
59970;SDS011;45825;45.434;9.116;2023-03-23T08:05:22;10.60;;;5.95;;
59970;SDS011;45825;45.434;9.116;2023-03-23T08:07:49;9.75;;;6.78;;
59970;SDS011;45825;45.434;9.116;2023-03-23T08:10:15;10.10;;;6.72;;
59970;SDS011;45825;45.434;9.116;2023-03-23T08:12:43;12.32;;;7.60;;
59970;SDS011;45825;45.434;9.116;2023-03-23T08:15:10;9.05;;;6.80;;
59970;SDS011;45825;45.434;9.116;2023-03-23T08:17:37;9.40;;;7.13;;
59970;SDS011;45825;45.434;9.116;2023-03-23T08:20:03;11.73;;;7.75;;
59970;SDS011;45825;45.434;9.116;2023-03-23T08:22:38;10.48;;;7.45;;
59970;SDS011;45825;45.434;9.116;2023-03-23T08:25:05;12.05;;;7.28;;
59970;SDS011;45825;45.434;9.116;2023-03-23T08:27:32;9.70;;;6.88;;
59970;SDS011;45825;45.434;9.116;2023-03-23T08:29:57;11.57;;;7.05;;
59970;SDS011;45825;45.434;9.116;2023-03-23T08:32:24;10.77;;;7.43;;
59970;SDS011;45825;45.434;9.116;2023-03-23T08:34:49;9.55;;;6.82;;
59970;SDS011;45825;45.434;9.116;2023-03-23T08:37:15;10.13;;;7.18;;
59970;SDS011;45825;45.434;9.116;2023-03-23T08:39:41;10.02;;;6.75;;
59970;SDS011;45825;45.434;9.116;2023-03-23T08:42:08;11.77;;;6.70;;
59970;SDS011;45825;45.434;9.116;2023-03-23T08:44:34;9.57;;;6.70;;
59970;SDS011;45825;45.434;9.116;2023-03-23T08:47:01;10.85;;;6.80;;
59970;SDS011;45825;45.434;9.116;2023-03-23T08:49:28;11.57;;;6.75;;
59970;SDS011;45825;45.434;9.116;2023-03-23T08:51:55;12.43;;;6.75;;
59970;SDS011;45825;45.434;9.116;2023-03-23T08:54:21;10.23;;;7.03;;
59970;SDS011;45825;45.434;9.116;2023-03-23T08:56:46;10.45;;;6.90;;
59970;SDS011;45825;45.434;9.116;2023-03-23T08:59:12;11.75;;;7.07;;
59970;SDS011;45825;45.434;9.116;2023-03-23T09:04:12;11.00;;;6.82;;
59970;SDS011;45825;45.434;9.116;2023-03-23T09:06:39;9.70;;;6.45;;
59970;SDS011;45825;45.434;9.116;2023-03-23T09:09:05;21.00;;;8.00;;
59970;SDS011;45825;45.434;9.116;2023-03-23T09:11:32;16.73;;;12.20;;
59970;SDS011;45825;45.434;9.116;2023-03-23T09:14:02;23.77;;;19.42;;
59970;SDS011;45825;45.434;9.116;2023-03-23T09:16:28;9.52;;;6.70;;
59970;SDS011;45825;45.434;9.116;2023-03-23T09:18:54;19.35;;;13.75;;
59970;SDS011;45825;45.434;9.116;2023-03-23T09:21:22;19.25;;;13.05;;
59970;SDS011;45825;45.434;9.116;2023-03-23T09:23:48;11.25;;;7.25;;
59970;SDS011;45825;45.434;9.116;2023-03-23T09:26:14;11.05;;;6.25;;
59970;SDS011;45825;45.434;9.116;2023-03-23T09:28:40;11.13;;;6.95;;
59970;SDS011;45825;45.434;9.116;2023-03-23T09:31:06;11.93;;;6.32;;
59970;SDS011;45825;45.434;9.116;2023-03-23T09:33:31;10.88;;;6.10;;
59970;SDS011;45825;45.434;9.116;2023-03-23T09:35:59;9.52;;;6.40;;
59970;SDS011;45825;45.434;9.116;2023-03-23T09:38:27;12.50;;;7.40;;
59970;SDS011;45825;45.434;9.116;2023-03-23T09:46:33;10.60;;;7.80;;
59970;SDS011;45825;45.434;9.116;2023-03-23T09:49:09;11.20;;;7.05;;
59970;SDS011;45825;45.434;9.116;2023-03-23T09:51:51;10.50;;;6.82;;
59970;SDS011;45825;45.434;9.116;2023-03-23T09:54:47;11.65;;;7.85;;
59970;SDS011;45825;45.434;9.116;2023-03-23T10:02:44;10.70;;;6.43;;
59970;SDS011;45825;45.434;9.116;2023-03-23T10:05:28;8.18;;;5.75;;
59970;SDS011;45825;45.434;9.116;2023-03-23T10:07:57;8.75;;;6.00;;
59970;SDS011;45825;45.434;9.116;2023-03-23T10:10:26;11.65;;;6.25;;
59970;SDS011;45825;45.434;9.116;2023-03-23T10:13:13;9.02;;;6.35;;
59970;SDS011;45825;45.434;9.116;2023-03-23T10:15:45;10.32;;;5.85;;
59970;SDS011;45825;45.434;9.116;2023-03-23T10:18:14;10.27;;;6.43;;
59970;SDS011;45825;45.434;9.116;2023-03-23T10:20:55;11.50;;;6.13;;
59970;SDS011;45825;45.434;9.116;2023-03-23T10:28:43;9.68;;;6.60;;
59970;SDS011;45825;45.434;9.116;2023-03-23T10:31:14;10.45;;;7.00;;
59970;SDS011;45825;45.434;9.116;2023-03-23T10:33:44;8.88;;;6.07;;
59970;SDS011;45825;45.434;9.116;2023-03-23T10:36:19;10.82;;;6.55;;
59970;SDS011;45825;45.434;9.116;2023-03-23T10:39:12;10.63;;;6.53;;
59970;SDS011;45825;45.434;9.116;2023-03-23T10:41:36;14.73;;;7.55;;
59970;SDS011;45825;45.434;9.116;2023-03-23T10:44:07;10.13;;;6.75;;
59970;SDS011;45825;45.434;9.116;2023-03-23T10:46:44;10.95;;;7.38;;
59970;SDS011;45825;45.434;9.116;2023-03-23T10:49:20;11.00;;;6.57;;
59970;SDS011;45825;45.434;9.116;2023-03-23T10:52:01;10.27;;;6.63;;
59970;SDS011;45825;45.434;9.116;2023-03-23T10:54:35;9.52;;;6.60;;
59970;SDS011;45825;45.434;9.116;2023-03-23T10:57:39;9.98;;;7.13;;
59970;SDS011;45825;45.434;9.116;2023-03-23T11:05:18;11.07;;;8.00;;
59970;SDS011;45825;45.434;9.116;2023-03-23T11:07:50;11.27;;;7.82;;
59970;SDS011;45825;45.434;9.116;2023-03-23T11:10:33;9.93;;;7.53;;
59970;SDS011;45825;45.434;9.116;2023-03-23T11:13:02;11.93;;;8.20;;
59970;SDS011;45825;45.434;9.116;2023-03-23T11:17:55;11.13;;;8.00;;
59970;SDS011;45825;45.434;9.116;2023-03-23T11:20:29;11.18;;;8.35;;
59970;SDS011;45825;45.434;9.116;2023-03-23T11:23:19;11.65;;;8.43;;
59970;SDS011;45825;45.434;9.116;2023-03-23T11:25:50;11.02;;;8.15;;
59970;SDS011;45825;45.434;9.116;2023-03-23T11:28:26;12.55;;;9.02;;
59970;SDS011;45825;45.434;9.116;2023-03-23T11:30:56;11.95;;;8.52;;
59970;SDS011;45825;45.434;9.116;2023-03-23T11:33:23;12.50;;;7.82;;
59970;SDS011;45825;45.434;9.116;2023-03-23T11:35:50;11.90;;;7.97;;
59970;SDS011;45825;45.434;9.116;2023-03-23T11:38:19;10.98;;;8.30;;
59970;SDS011;45825;45.434;9.116;2023-03-23T11:40:50;10.77;;;8.63;;
59970;SDS011;45825;45.434;9.116;2023-03-23T11:43:20;10.93;;;8.18;;
59970;SDS011;45825;45.434;9.116;2023-03-23T11:51:34;11.55;;;8.98;;
59970;SDS011;45825;45.434;9.116;2023-03-23T11:54:19;13.63;;;9.57;;
59970;SDS011;45825;45.434;9.116;2023-03-23T11:56:58;14.52;;;10.05;;
59970;SDS011;45825;45.434;9.116;2023-03-23T11:59:30;11.90;;;9.15;;
59970;SDS011;45825;45.434;9.116;2023-03-23T12:10:52;13.27;;;9.13;;
59970;SDS011;45825;45.434;9.116;2023-03-23T12:13:30;11.27;;;8.75;;
59970;SDS011;45825;45.434;9.116;2023-03-23T12:19:21;13.20;;;8.13;;
59970;SDS011;45825;45.434;9.116;2023-03-23T12:31:03;11.85;;;8.52;;
59970;SDS011;45825;45.434;9.116;2023-03-23T12:33:42;13.13;;;8.18;;
59970;SDS011;45825;45.434;9.116;2023-03-23T12:39:14;11.68;;;7.30;;
59970;SDS011;45825;45.434;9.116;2023-03-23T12:44:28;9.13;;;6.82;;
59970;SDS011;45825;45.434;9.116;2023-03-23T12:47:13;12.02;;;7.25;;
59970;SDS011;45825;45.434;9.116;2023-03-23T12:55:43;11.60;;;7.65;;
59970;SDS011;45825;45.434;9.116;2023-03-23T12:58:30;13.00;;;7.53;;
59970;SDS011;45825;45.434;9.116;2023-03-23T13:01:04;16.70;;;7.13;;
59970;SDS011;45825;45.434;9.116;2023-03-23T13:11:38;11.57;;;7.20;;
59970;SDS011;45825;45.434;9.116;2023-03-23T13:17:02;12.82;;;6.32;;
59970;SDS011;45825;45.434;9.116;2023-03-23T13:22:28;11.05;;;6.63;;
59970;SDS011;45825;45.434;9.116;2023-03-23T13:25:01;8.68;;;5.30;;
59970;SDS011;45825;45.434;9.116;2023-03-23T13:27:31;11.57;;;6.65;;
59970;SDS011;45825;45.434;9.116;2023-03-23T13:29:57;12.95;;;7.15;;
59970;SDS011;45825;45.434;9.116;2023-03-23T13:32:34;10.10;;;6.90;;
59970;SDS011;45825;45.434;9.116;2023-03-23T13:35:04;10.30;;;7.15;;
59970;SDS011;45825;45.434;9.116;2023-03-23T13:37:41;10.17;;;6.80;;
59970;SDS011;45825;45.434;9.116;2023-03-23T13:42:54;12.00;;;7.30;;
59970;SDS011;45825;45.434;9.116;2023-03-23T13:46:06;11.70;;;6.97;;
59970;SDS011;45825;45.434;9.116;2023-03-23T13:50:44;10.53;;;6.27;;
59970;SDS011;45825;45.434;9.116;2023-03-23T13:53:15;9.00;;;6.80;;
59970;SDS011;45825;45.434;9.116;2023-03-23T13:55:48;11.55;;;7.00;;
59970;SDS011;45825;45.434;9.116;2023-03-23T13:58:24;10.60;;;6.32;;
59970;SDS011;45825;45.434;9.116;2023-03-23T14:01:03;10.98;;;6.93;;
59970;SDS011;45825;45.434;9.116;2023-03-23T14:03:40;9.60;;;7.03;;
59970;SDS011;45825;45.434;9.116;2023-03-23T14:06:14;14.05;;;7.25;;
59970;SDS011;45825;45.434;9.116;2023-03-23T14:08:47;12.32;;;6.20;;
59970;SDS011;45825;45.434;9.116;2023-03-23T14:11:26;10.20;;;6.07;;
59970;SDS011;45825;45.434;9.116;2023-03-23T14:16:22;11.05;;;7.20;;
59970;SDS011;45825;45.434;9.116;2023-03-23T14:18:55;8.48;;;5.88;;
59970;SDS011;45825;45.434;9.116;2023-03-23T14:24:00;11.00;;;5.03;;
59970;SDS011;45825;45.434;9.116;2023-03-23T14:26:26;8.77;;;5.40;;
59970;SDS011;45825;45.434;9.116;2023-03-23T14:28:52;8.20;;;5.07;;
59970;SDS011;45825;45.434;9.116;2023-03-23T14:31:22;11.73;;;6.15;;
59970;SDS011;45825;45.434;9.116;2023-03-23T14:33:50;9.60;;;5.68;;
59970;SDS011;45825;45.434;9.116;2023-03-23T14:36:26;10.27;;;5.63;;
59970;SDS011;45825;45.434;9.116;2023-03-23T14:38:58;12.60;;;6.13;;
59970;SDS011;45825;45.434;9.116;2023-03-23T14:41:31;12.27;;;6.60;;
59970;SDS011;45825;45.434;9.116;2023-03-23T14:43:59;9.68;;;6.75;;
59970;SDS011;45825;45.434;9.116;2023-03-23T14:46:26;11.70;;;7.07;;
59970;SDS011;45825;45.434;9.116;2023-03-23T14:48:52;12.88;;;7.93;;
59970;SDS011;45825;45.434;9.116;2023-03-23T14:51:18;12.70;;;6.80;;
59970;SDS011;45825;45.434;9.116;2023-03-23T14:53:45;11.32;;;6.00;;
59970;SDS011;45825;45.434;9.116;2023-03-23T14:56:13;12.07;;;7.03;;
59970;SDS011;45825;45.434;9.116;2023-03-23T14:58:47;10.27;;;7.05;;
59970;SDS011;45825;45.434;9.116;2023-03-23T15:01:16;8.85;;;6.07;;
59970;SDS011;45825;45.434;9.116;2023-03-23T15:03:55;11.40;;;6.35;;
59970;SDS011;45825;45.434;9.116;2023-03-23T15:06:26;10.52;;;6.47;;
59970;SDS011;45825;45.434;9.116;2023-03-23T15:08:55;12.73;;;7.30;;
59970;SDS011;45825;45.434;9.116;2023-03-23T15:11:30;12.88;;;7.03;;
59970;SDS011;45825;45.434;9.116;2023-03-23T15:13:59;9.05;;;6.03;;
59970;SDS011;45825;45.434;9.116;2023-03-23T15:16:32;12.88;;;6.85;;
59970;SDS011;45825;45.434;9.116;2023-03-23T15:19:00;12.23;;;6.75;;
59970;SDS011;45825;45.434;9.116;2023-03-23T15:21:36;13.52;;;6.93;;
59970;SDS011;45825;45.434;9.116;2023-03-23T15:27:03;10.75;;;6.25;;
59970;SDS011;45825;45.434;9.116;2023-03-23T15:29:45;12.02;;;6.75;;
59970;SDS011;45825;45.434;9.116;2023-03-23T15:32:23;11.85;;;7.07;;
59970;SDS011;45825;45.434;9.116;2023-03-23T15:34:51;9.40;;;6.70;;
59970;SDS011;45825;45.434;9.116;2023-03-23T15:37:32;12.20;;;6.32;;
59970;SDS011;45825;45.434;9.116;2023-03-23T15:40:01;14.48;;;7.13;;
59970;SDS011;45825;45.434;9.116;2023-03-23T15:42:29;12.55;;;7.00;;
59970;SDS011;45825;45.434;9.116;2023-03-23T15:47:43;11.50;;;6.82;;
59970;SDS011;45825;45.434;9.116;2023-03-23T15:52:50;9.80;;;5.85;;
59970;SDS011;45825;45.434;9.116;2023-03-23T15:55:29;9.02;;;6.40;;
59970;SDS011;45825;45.434;9.116;2023-03-23T15:58:04;10.40;;;6.50;;
59970;SDS011;45825;45.434;9.116;2023-03-23T16:00:33;12.13;;;6.82;;
59970;SDS011;45825;45.434;9.116;2023-03-23T16:03:00;14.88;;;7.07;;
59970;SDS011;45825;45.434;9.116;2023-03-23T16:05:28;8.93;;;6.57;;
59970;SDS011;45825;45.434;9.116;2023-03-23T16:07:54;10.70;;;6.07;;
59970;SDS011;45825;45.434;9.116;2023-03-23T16:10:21;9.98;;;5.78;;
59970;SDS011;45825;45.434;9.116;2023-03-23T16:12:48;11.05;;;5.68;;
59970;SDS011;45825;45.434;9.116;2023-03-23T16:15:14;11.10;;;5.60;;
59970;SDS011;45825;45.434;9.116;2023-03-23T16:17:40;11.32;;;5.72;;
59970;SDS011;45825;45.434;9.116;2023-03-23T16:20:13;11.25;;;6.28;;
59970;SDS011;45825;45.434;9.116;2023-03-23T16:22:40;11.68;;;6.07;;
59970;SDS011;45825;45.434;9.116;2023-03-23T16:25:06;10.43;;;6.00;;
59970;SDS011;45825;45.434;9.116;2023-03-23T16:27:32;11.15;;;6.22;;
59970;SDS011;45825;45.434;9.116;2023-03-23T16:29:57;11.90;;;6.25;;
59970;SDS011;45825;45.434;9.116;2023-03-23T16:32:24;12.02;;;5.43;;
59970;SDS011;45825;45.434;9.116;2023-03-23T16:34:50;9.32;;;5.72;;
59970;SDS011;45825;45.434;9.116;2023-03-23T16:37:15;8.45;;;5.25;;
59970;SDS011;45825;45.434;9.116;2023-03-23T16:39:41;10.52;;;5.25;;
59970;SDS011;45825;45.434;9.116;2023-03-23T16:42:07;9.88;;;4.88;;
59970;SDS011;45825;45.434;9.116;2023-03-23T16:44:33;10.35;;;5.00;;
59970;SDS011;45825;45.434;9.116;2023-03-23T16:46:58;9.30;;;5.00;;
59970;SDS011;45825;45.434;9.116;2023-03-23T16:49:27;9.18;;;4.60;;
59970;SDS011;45825;45.434;9.116;2023-03-23T16:51:52;9.25;;;4.45;;
59970;SDS011;45825;45.434;9.116;2023-03-23T16:54:18;9.15;;;4.70;;
59970;SDS011;45825;45.434;9.116;2023-03-23T16:56:43;8.80;;;5.00;;